Time;durP1;ratioP1;P1;durP2;ratioP2;P2;SDS_P1;SDS_P2;PMS_P1;PMS_P2;Temp;Humidity;BMP_temperature;BMP_pressure;BME280_temperature;BME280_humidity;BME280_pressure;Samples;Min_cycle;Max_cycle;Signal;HPM_P1;HPM_P2
2022/11/15 00:02:26;;;;;;;1.92;0.22;;;;;;;9.56;100.00;98370.59;7395813;19;20014;-56
2022/11/15 00:05:11;;;;;;;0.30;0.30;;;;;;;9.81;100.00;98352.91;7393060;19;20016;-55
2022/11/15 00:07:56;;;;;;;0.20;0.20;;;;;;;9.68;100.00;98349.88;7391792;19;20014;-56
2022/11/15 00:10:41;;;;;;;0.10;0.10;;;;;;;9.76;100.00;98348.13;7392172;19;20543;-56
2022/11/15 00:13:26;;;;;;;0.10;0.10;;;;;;;9.86;100.00;98351.38;7392226;19;20019;-55
2022/11/15 00:16:11;;;;;;;2.92;0.43;;;;;;;9.96;100.00;98335.97;7392937;19;20014;-55
2022/11/15 00:18:57;;;;;;;0.17;0.10;;;;;;;8.52;100.00;98338.56;7395222;19;20341;-56
2022/11/15 00:21:41;;;;;;;0.10;0.10;;;;;;;8.36;100.00;98330.91;7393915;19;20010;-56
2022/11/15 00:24:26;;;;;;;0.43;0.30;;;;;;;9.03;100.00;98318.75;7392178;19;20519;-56
2022/11/15 00:27:10;;;;;;;0.10;0.10;;;;;;;9.58;100.00;98311.72;7391561;19;20069;-55
2022/11/15 00:29:55;;;;;;;20.15;1.08;;;;;;;9.61;100.00;98305.16;7391158;19;20016;-55
2022/11/15 00:32:40;;;;;;;0.90;0.68;;;;;;;8.68;100.00;98301.03;7397314;19;20010;-55
2022/11/15 00:35:24;;;;;;;0.32;0.20;;;;;;;8.01;100.00;98299.97;7391775;19;20018;-55
2022/11/15 00:38:09;;;;;;;0.15;0.15;;;;;;;8.66;100.00;98289.69;7391733;19;20562;-55
2022/11/15 00:40:53;;;;;;;0.93;0.55;;;;;;;9.24;100.00;98282.44;7392977;19;20400;-55
2022/11/15 00:43:39;;;;;;;0.20;0.20;;;;;;;8.31;100.00;98273.41;7391481;19;20006;-55
2022/11/15 00:46:24;;;;;;;0.10;0.10;;;;;;;8.53;100.00;98273.50;7390046;19;20344;-55
2022/11/15 00:49:09;;;;;;;0.10;0.10;;;;;;;8.95;100.00;98259.44;7391480;19;20025;-55
2022/11/15 00:51:53;;;;;;;0.10;0.10;;;;;;;8.81;100.00;98252.13;7394383;19;20015;-55
2022/11/15 00:54:38;;;;;;;0.45;0.32;;;;;;;8.33;100.00;98248.72;7391369;19;20010;-55
2022/11/15 00:57:23;;;;;;;0.30;0.30;;;;;;;8.25;100.00;98250.44;7390218;19;20014;-55
2022/11/15 01:00:08;;;;;;;0.75;0.30;;;;;;;8.29;100.00;98250.97;7390551;19;20010;-56
2022/11/15 01:02:53;;;;;;;0.10;0.10;;;;;;;8.78;100.00;98236.47;7390312;19;20019;-56
2022/11/15 01:05:38;;;;;;;0.17;0.13;;;;;;;8.93;100.00;98231.44;7390116;19;20011;-56
2022/11/15 01:08:22;;;;;;;0.15;0.15;;;;;;;8.59;100.00;98234.66;7390653;19;20010;-56
2022/11/15 01:11:10;;;;;;;0.28;0.28;;;;;;;8.49;100.00;98239.66;7392610;19;20018;-56
2022/11/15 01:13:55;;;;;;;1.27;0.95;;;;;;;8.71;100.00;98230.63;7390857;19;20010;-56
2022/11/15 01:16:40;;;;;;;0.30;0.30;;;;;;;8.97;100.00;98226.38;7390964;19;20444;-56
2022/11/15 01:19:24;;;;;;;0.82;0.32;;;;;;;9.20;100.00;98220.84;7390843;19;20471;-56
2022/11/15 01:22:09;;;;;;;0.30;0.30;;;;;;;8.81;100.00;98210.47;7393254;19;20045;-56
2022/11/15 01:24:53;;;;;;;0.50;0.30;;;;;;;9.34;100.00;98203.13;7389695;19;20011;-55
2022/11/15 01:27:38;;;;;;;0.20;0.20;;;;;;;10.30;100.00;98198.31;7389888;19;20011;-56
2022/11/15 01:30:22;;;;;;;0.15;0.15;;;;;;;9.54;100.00;98200.84;7390925;19;20074;-55
2022/11/15 01:33:07;;;;;;;0.13;0.13;;;;;;;7.68;100.00;98198.00;7391965;19;20014;-55
2022/11/15 01:35:51;;;;;;;0.80;0.47;;;;;;;10.55;100.00;98188.78;7389274;19;20015;-55
2022/11/15 01:38:36;;;;;;;9.32;0.47;;;;;;;10.31;100.00;98169.22;7389389;19;20463;-56
2022/11/15 01:41:27;;;;;;;0.20;0.20;;;;;;;10.61;100.00;98158.16;7390733;19;20018;-55
2022/11/15 01:44:30;;;;;;;0.10;0.10;;;;;;;10.30;100.00;98159.38;7389484;19;20015;-55
2022/11/15 01:47:19;;;;;;;0.10;0.10;;;;;;;9.91;100.00;98156.75;7389854;19;20014;-55
2022/11/15 01:50:10;;;;;;;0.20;0.20;;;;;;;9.58;100.00;98156.09;7389654;19;20194;-56
2022/11/15 01:52:55;;;;;;;0.20;0.10;;;;;;;11.58;100.00;98130.41;7390041;19;20015;-56
2022/11/15 01:55:40;;;;;;;0.10;0.10;;;;;;;9.79;100.00;98143.38;7389496;19;20231;-55
2022/11/15 01:58:24;;;;;;;0.20;0.10;;;;;;;11.94;100.00;98126.94;7389296;19;20070;-55
2022/11/15 02:01:10;;;;;;;1.08;0.50;;;;;;;11.33;100.00;98107.34;7390754;19;20503;-56
2022/11/15 02:04:11;;;;;;;0.10;0.10;;;;;;;9.79;100.00;98110.78;7392252;19;20508;-56
2022/11/15 02:06:56;;;;;;;0.50;0.38;;;;;;;9.30;100.00;98108.19;7389044;19;20014;-55
2022/11/15 02:09:42;;;;;;;0.22;0.10;;;;;;;9.46;100.00;98104.63;7389121;19;20018;-55
2022/11/15 02:12:27;;;;;;;0.22;0.22;;;;;;;8.48;100.00;98093.16;7393706;19;20467;-55
2022/11/15 02:15:13;;;;;;;0.52;0.20;;;;;;;9.36;100.00;98087.47;7389028;19;20408;-55
2022/11/15 02:18:26;;;;;;;0.90;0.35;;;;;;;10.40;100.00;98063.16;7388800;19;20088;-56
2022/11/15 02:21:44;;;;;;;3.13;0.57;;;;;;;9.76;100.00;98078.47;7388148;19;20345;-55
2022/11/15 02:24:53;;;;;;;0.17;0.17;;;;;;;11.22;100.00;98060.88;7384991;19;20101;-55
2022/11/15 02:27:38;;;;;;;1.95;0.40;;;;;;;13.31;100.00;98052.66;7388101;19;20018;-56
2022/11/15 02:30:24;;;;;;;0.45;0.45;;;;;;;14.02;100.00;98037.69;7389353;19;20610;-56
2022/11/15 02:33:41;;;;;;;2.53;0.25;;;;;;;12.35;100.00;98031.72;7390771;19;20018;-56
2022/11/15 02:36:33;;;;;;;0.10;0.10;;;;;;;13.67;100.00;98017.34;7389393;19;20010;-56
2022/11/15 02:39:49;;;;;;;0.22;0.10;;;;;;;14.10;100.00;98007.72;7388440;19;20019;-56
2022/11/15 02:45:54;;;;;;;0.75;0.52;;;;;;;13.42;100.00;97985.34;7392099;19;20014;-56
2022/11/15 02:48:39;;;;;;;0.25;0.08;;;;;;;12.78;100.00;97989.63;7388221;19;20019;-56
2022/11/15 02:51:24;;;;;;;0.10;0.10;;;;;;;15.18;100.00;97979.50;7393998;19;20010;-56
2022/11/15 02:54:21;;;;;;;0.10;0.10;;;;;;;11.11;100.00;98001.75;7395725;19;20015;-56
2022/11/15 02:57:19;;;;;;;7.78;0.73;;;;;;;10.22;100.00;97982.38;7394978;19;20070;-57
2022/11/15 03:00:15;;;;;;;0.10;0.10;;;;;;;10.42;100.00;97985.47;7395054;19;20389;-56
2022/11/15 03:03:38;;;;;;;0.65;0.35;;;;;;;13.35;100.00;97974.81;7393661;19;20018;-56
2022/11/15 03:06:52;;;;;;;0.10;0.00;;;;;;;11.07;100.00;97978.97;7394317;19;20015;-56
2022/11/15 03:09:54;;;;;;;0.90;0.65;;;;;;;11.13;100.00;97972.06;7395057;19;20010;-56
2022/11/15 03:12:39;;;;;;;0.15;0.15;;;;;;;9.62;100.00;97973.16;7400128;19;20006;-56
2022/11/15 03:15:31;;;;;;;8.02;0.57;;;;;;;11.12;100.00;97953.09;7394756;19;20333;-57
2022/11/15 03:18:24;;;;;;;0.10;0.10;;;;;;;10.92;100.00;97945.22;7394628;19;20074;-56
2022/11/15 03:21:11;;;;;;;0.20;0.20;;;;;;;10.81;100.00;97934.22;7395830;19;20325;-57
2022/11/15 03:24:02;;;;;;;0.82;0.60;;;;;;;10.05;100.00;97932.41;7394522;19;20014;-56
2022/11/15 03:26:48;;;;;;;1.90;0.20;;;;;;;9.97;100.00;97939.06;7395118;19;20007;-56
2022/11/15 03:29:38;;;;;;;10.98;0.57;;;;;;;9.53;100.00;97940.16;7394767;19;20006;-56
2022/11/15 03:32:27;;;;;;;0.10;0.10;;;;;;;9.32;100.00;97933.44;7398829;19;20010;-57
2022/11/15 03:35:17;;;;;;;0.10;0.10;;;;;;;11.30;100.00;97905.72;7394685;19;20066;-57
2022/11/15 03:38:15;;;;;;;0.10;0.00;;;;;;;14.05;100.00;97911.44;7393558;19;20018;-56
2022/11/15 03:41:07;;;;;;;0.82;0.38;;;;;;;14.70;100.00;97896.25;7395405;19;20074;-57
2022/11/15 03:44:25;;;;;;;0.20;0.20;;;;;;;10.44;100.00;97905.00;7394557;19;20361;-56
2022/11/15 03:47:39;;;;;;;1.45;0.22;;;;;;;10.19;100.00;97903.50;7392427;19;20022;-57
2022/11/15 03:50:25;;;;;;;0.75;0.28;;;;;;;9.20;100.00;97907.00;7392997;19;20074;-56
2022/11/15 03:53:11;;;;;;;0.10;0.10;;;;;;;11.41;100.00;97890.91;7396981;19;20014;-57
2022/11/15 03:55:56;;;;;;;13.43;1.23;;;;;;;14.29;100.00;97885.16;7391340;19;20025;-57
2022/11/15 03:58:41;;;;;;;0.45;0.05;;;;;;;12.94;100.00;97876.81;7393470;19;20018;-56
2022/11/15 04:01:25;;;;;;;0.10;0.08;;;;;;;11.16;100.00;97869.97;7393034;19;20467;-57
2022/11/15 04:04:11;;;;;;;0.15;0.10;;;;;;;9.97;100.00;97877.88;7396100;19;20018;-56
2022/11/15 04:06:56;;;;;;;0.22;0.22;;;;;;;9.79;100.00;97873.75;7393179;19;20439;-56
2022/11/15 04:12:49;;;;;;;3.13;0.57;;;;;;;10.59;100.00;97862.84;7397177;19;20070;-56
2022/11/15 04:15:34;;;;;;;0.10;0.10;;;;;;;10.33;100.00;97860.59;7392185;19;20018;-56
2022/11/15 04:18:18;;;;;;;1.17;0.55;;;;;;;14.68;100.00;97848.44;7392070;19;20435;-57
2022/11/15 04:24:12;;;;;;;0.10;0.10;;;;;;;13.99;100.00;97829.63;7391932;19;20011;-57
2022/11/15 04:26:57;;;;;;;0.17;0.17;;;;;;;11.15;100.00;97837.84;7392732;19;20377;-57
2022/11/15 04:29:42;;;;;;;1.50;0.45;;;;;;;11.36;100.00;97819.28;7391882;19;20007;-57
2022/11/15 04:32:27;;;;;;;0.10;0.10;;;;;;;9.81;100.00;97835.09;7395880;19;20014;-57
2022/11/15 04:35:11;;;;;;;6.63;0.63;;;;;;;10.51;100.00;97836.88;7391819;19;20011;-57
2022/11/15 04:37:57;;;;;;;0.10;0.10;;;;;;;9.58;100.00;97820.63;7392457;19;20721;-57
2022/11/15 04:40:41;;;;;;;2.30;0.90;;;;;;;9.33;100.00;97841.28;7392840;19;20018;-57
2022/11/15 04:43:26;;;;;;;0.73;0.70;;;;;;;9.71;100.00;97828.34;7391910;19;20105;-57
2022/11/15 04:46:11;;;;;;;0.10;0.00;;;;;;;9.22;100.00;97829.50;7396605;19;20018;-57
2022/11/15 04:48:55;;;;;;;0.10;0.10;;;;;;;8.83;100.00;97830.50;7391876;19;20015;-58
2022/11/15 04:51:40;;;;;;;0.25;0.25;;;;;;;8.86;100.00;97825.91;7393179;19;20026;-56
2022/11/15 04:54:25;;;;;;;0.28;0.00;;;;;;;8.94;100.00;97821.34;7391462;19;20014;-56
2022/11/15 04:57:09;;;;;;;0.50;0.22;;;;;;;10.04;100.00;97819.69;7391371;19;20018;-56
2022/11/15 04:59:54;;;;;;;0.10;0.10;;;;;;;10.44;100.00;97795.72;7391264;19;20014;-55
2022/11/15 05:05:42;;;;;;;0.40;0.20;;;;;;;9.21;100.00;97794.63;7391207;19;20018;-54
2022/11/15 05:08:26;;;;;;;0.10;0.10;;;;;;;8.99;100.00;97799.09;7390000;19;20015;-55
2022/11/15 05:11:11;;;;;;;0.20;0.20;;;;;;;8.91;100.00;97794.59;7392924;19;20014;-54
2022/11/15 05:13:56;;;;;;;0.63;0.10;;;;;;;9.00;100.00;97786.72;7390089;19;20015;-54
2022/11/15 05:16:42;;;;;;;6.53;0.35;;;;;;;9.04;100.00;97770.53;7388988;19;20018;-55
2022/11/15 05:19:27;;;;;;;1.95;0.30;;;;;;;8.95;100.00;97781.97;7391216;19;20761;-55
2022/11/15 05:22:11;;;;;;;0.10;0.00;;;;;;;9.13;100.00;97764.69;7393433;19;20014;-54
2022/11/15 05:24:56;;;;;;;0.57;0.20;;;;;;;9.00;100.00;97763.75;7389700;19;20011;-55
2022/11/15 05:27:40;;;;;;;0.10;0.10;;;;;;;9.13;100.00;97764.69;7390136;19;20011;-55
2022/11/15 05:30:25;;;;;;;0.40;0.40;;;;;;;9.20;100.00;97748.72;7390159;19;20014;-54
2022/11/15 05:33:09;;;;;;;1.65;0.47;;;;;;;9.35;100.00;97746.31;7392408;19;20014;-54
2022/11/15 05:36:02;;;;;;;0.55;0.55;;;;;;;9.06;100.00;97739.47;7390379;19;20014;-54
2022/11/15 05:38:48;;;;;;;0.35;0.15;;;;;;;9.14;100.00;97729.31;7390318;19;20014;-55
2022/11/15 05:41:43;;;;;;;0.90;0.20;;;;;;;9.02;100.00;97733.47;7392001;19;20014;-55
2022/11/15 05:44:28;;;;;;;0.10;0.10;;;;;;;9.02;100.00;97723.09;7390464;19;20018;-55
2022/11/15 05:47:18;;;;;;;0.13;0.13;;;;;;;9.03;100.00;97719.03;7390305;19;20010;-55
2022/11/15 05:50:03;;;;;;;0.10;0.10;;;;;;;9.05;100.00;97716.50;7389961;19;20011;-55
2022/11/15 05:52:48;;;;;;;0.10;0.10;;;;;;;9.16;100.00;97710.09;7394791;19;20015;-55
2022/11/15 05:55:33;;;;;;;9.30;0.55;;;;;;;9.20;100.00;97709.84;7389568;19;20015;-55
2022/11/15 05:58:20;;;;;;;0.20;0.15;;;;;;;9.41;100.00;97692.22;7389909;19;20015;-55
2022/11/15 06:01:05;;;;;;;0.20;0.20;;;;;;;9.40;100.00;97703.84;7388347;19;20011;-55
2022/11/15 06:03:49;;;;;;;0.35;0.10;;;;;;;9.34;100.00;97686.47;7392840;19;20022;-54
2022/11/15 06:06:34;;;;;;;0.10;0.10;;;;;;;9.34;100.00;97686.47;7389264;19;20440;-55
2022/11/15 06:09:19;;;;;;;0.57;0.40;;;;;;;9.34;100.00;97680.91;7388942;19;20015;-55
2022/11/15 06:12:04;;;;;;;0.10;0.10;;;;;;;9.58;100.00;97680.94;7393532;19;20014;-55
2022/11/15 06:14:49;;;;;;;1.45;0.20;;;;;;;9.47;100.00;97673.47;7389316;19;20014;-55
2022/11/15 06:17:33;;;;;;;2.92;0.10;;;;;;;9.46;100.00;97668.44;7388319;19;20011;-55
2022/11/15 06:20:18;;;;;;;0.10;0.10;;;;;;;9.46;100.00;97665.66;7387334;19;20011;-55
2022/11/15 06:23:04;;;;;;;0.10;0.10;;;;;;;9.53;100.00;97653.97;7385907;19;20014;-54
2022/11/15 06:25:49;;;;;;;4.22;1.10;;;;;;;9.58;100.00;97656.69;7390990;19;20400;-54
2022/11/15 06:28:33;;;;;;;6.65;1.98;;;;;;;9.62;100.00;97656.38;7396852;19;20015;-54
2022/11/15 06:31:18;;;;;;;0.40;0.22;;;;;;;9.59;100.00;97663.00;7399173;19;20022;-54
2022/11/15 06:34:02;;;;;;;0.28;0.15;;;;;;;9.53;100.00;97659.53;7400222;19;20018;-54
2022/11/15 06:36:47;;;;;;;2.83;1.00;;;;;;;9.59;100.00;97652.63;7396172;19;20002;-54
2022/11/15 06:39:31;;;;;;;2.50;0.35;;;;;;;9.64;100.00;97656.59;7395106;19;20078;-54
2022/11/15 06:42:16;;;;;;;0.20;0.20;;;;;;;9.60;100.00;97645.03;7398471;19;20015;-54
2022/11/15 06:45:01;;;;;;;0.80;0.55;;;;;;;9.65;100.00;97638.66;7398687;19;20336;-54
2022/11/15 06:47:46;;;;;;;0.10;0.00;;;;;;;9.68;100.00;97637.63;7395748;19;20016;-54
2022/11/15 06:50:31;;;;;;;0.10;0.10;;;;;;;9.72;100.00;97640.88;7395700;19;20011;-54
2022/11/15 06:53:15;;;;;;;0.55;0.17;;;;;;;9.76;100.00;97621.84;7395126;19;20015;-54
2022/11/15 06:56:05;;;;;;;0.45;0.45;;;;;;;9.81;100.00;97618.28;7395692;19;20015;-54
2022/11/15 06:58:50;;;;;;;0.90;0.32;;;;;;;9.81;100.00;97613.44;7394379;19;20010;-54
2022/11/15 07:01:35;;;;;;;0.28;0.28;;;;;;;9.80;100.00;97616.75;7397893;19;20007;-55
2022/11/15 07:04:19;;;;;;;0.43;0.30;;;;;;;9.95;100.00;97619.84;7398676;19;20022;-55
2022/11/15 07:07:04;;;;;;;0.20;0.20;;;;;;;10.33;100.00;97613.00;7395233;19;20018;-54
2022/11/15 07:09:48;;;;;;;0.20;0.20;;;;;;;10.66;100.00;97606.94;7394935;19;20019;-54
2022/11/15 07:12:33;;;;;;;0.45;0.28;;;;;;;9.97;100.00;97603.38;7399986;19;20014;-54
2022/11/15 07:15:20;;;;;;;6.18;0.52;;;;;;;9.92;100.00;97612.53;7393120;19;20623;-55
2022/11/15 07:18:05;;;;;;;0.10;0.10;;;;;;;10.12;100.00;97602.94;7393848;19;20026;-55
2022/11/15 07:20:49;;;;;;;3.78;0.30;;;;;;;10.10;100.00;97606.25;7394933;19;20014;-54
2022/11/15 07:23:38;;;;;;;0.20;0.10;;;;;;;10.06;100.00;97594.66;7394301;19;20015;-55
2022/11/15 07:26:23;;;;;;;2.63;0.15;;;;;;;10.12;100.00;97598.16;7393987;19;20018;-55
2022/11/15 07:29:07;;;;;;;0.20;0.20;;;;;;;10.52;100.00;97590.72;7394060;19;20011;-55
2022/11/15 07:31:52;;;;;;;1.13;0.35;;;;;;;10.03;100.00;97595.72;7396735;19;20026;-55
2022/11/15 07:34:36;;;;;;;0.10;0.10;;;;;;;10.15;100.00;97591.53;7399029;19;20007;-55
2022/11/15 07:37:21;;;;;;;0.10;0.10;;;;;;;10.19;100.00;97586.41;7390173;19;20018;-55
2022/11/15 07:40:06;;;;;;;0.30;0.30;;;;;;;10.50;100.00;97576.59;7393403;19;20022;-54
2022/11/15 07:42:54;;;;;;;0.43;0.05;;;;;;;10.34;100.00;97581.13;7397079;19;20014;-55
2022/11/15 07:45:43;;;;;;;2.47;0.57;;;;;;;10.55;100.00;97575.75;7397552;19;20858;-54
2022/11/15 07:48:28;;;;;;;0.00;0.00;;;;;;;10.75;100.00;97574.41;7393646;19;20348;-54
2022/11/15 07:51:14;;;;;;;0.22;0.20;;;;;;;10.50;100.00;97568.25;7395906;19;20070;-54
2022/11/15 07:53:59;;;;;;;0.38;0.20;;;;;;;10.86;100.00;97571.44;7392225;19;20023;-54
2022/11/15 07:56:44;;;;;;;0.10;0.00;;;;;;;10.42;100.00;97564.56;7392470;19;20014;-54
2022/11/15 07:59:29;;;;;;;0.10;0.00;;;;;;;10.68;100.00;97564.66;7393367;19;20349;-54
2022/11/15 08:02:13;;;;;;;0.13;0.05;;;;;;;10.47;100.00;97560.94;7395818;19;20018;-54
2022/11/15 08:04:57;;;;;;;0.08;0.08;;;;;;;10.36;100.00;97556.31;7392988;19;20010;-53
2022/11/15 08:07:42;;;;;;;0.20;0.10;;;;;;;10.57;100.00;97554.44;7392479;19;20015;-53
2022/11/15 08:10:27;;;;;;;0.10;0.10;;;;;;;10.35;100.00;97546.47;7392580;19;20070;-54
2022/11/15 08:13:13;;;;;;;0.73;0.30;;;;;;;10.65;100.00;97544.19;7391393;19;20019;-54
2022/11/15 08:16:01;;;;;;;0.35;0.30;;;;;;;10.98;100.00;97544.91;7393452;19;20023;-53
2022/11/15 08:18:47;;;;;;;0.20;0.20;;;;;;;11.05;100.00;97536.66;7393573;19;20019;-54
2022/11/15 08:21:31;;;;;;;0.28;0.10;;;;;;;12.03;100.00;97521.19;7394077;19;20011;-54
2022/11/15 08:24:16;;;;;;;7.43;0.55;;;;;;;11.66;100.00;97513.13;7392382;19;20767;-54
2022/11/15 08:27:00;;;;;;;0.10;0.00;;;;;;;11.65;100.00;97508.81;7392271;19;20074;-53
2022/11/15 08:29:46;;;;;;;0.38;0.10;;;;;;;11.38;100.00;97499.03;7392587;19;20010;-54
2022/11/15 08:32:31;;;;;;;0.00;0.00;;;;;;;11.16;100.00;97507.81;7396074;19;20019;-54
2022/11/15 08:35:17;;;;;;;0.10;0.00;;;;;;;11.23;100.00;97509.97;7392238;19;20014;-53
2022/11/15 08:38:02;;;;;;;0.10;0.00;;;;;;;11.40;100.00;97488.09;7392419;19;20022;-54
2022/11/15 08:40:46;;;;;;;4.68;0.20;;;;;;;10.85;100.00;97503.13;7393009;19;20463;-54
2022/11/15 08:43:31;;;;;;;0.30;0.20;;;;;;;11.05;100.00;97502.47;7391360;19;20042;-54
2022/11/15 08:46:18;;;;;;;0.10;0.00;;;;;;;10.95;100.00;97487.47;7395509;19;20026;-54
2022/11/15 08:49:02;;;;;;;0.00;0.00;;;;;;;10.98;100.00;97483.63;7388955;19;20010;-55
2022/11/15 08:51:47;;;;;;;0.13;0.00;;;;;;;11.25;100.00;97460.03;7395362;19;20345;-54
2022/11/15 08:54:31;;;;;;;0.10;0.00;;;;;;;11.25;100.00;97460.03;7391538;19;20014;-55
2022/11/15 08:57:16;;;;;;;0.15;0.15;;;;;;;11.02;100.00;97436.72;7390756;19;20429;-55
2022/11/15 09:00:01;;;;;;;0.00;0.00;;;;;;;10.94;100.00;97438.63;7390788;19;20015;-56
2022/11/15 09:02:45;;;;;;;0.00;0.00;;;;;;;11.04;100.00;97423.75;7394891;19;20469;-55
2022/11/15 09:05:30;;;;;;;0.10;0.10;;;;;;;11.67;100.00;97428.25;7390970;19;20010;-55
2022/11/15 09:08:15;;;;;;;0.10;0.10;;;;;;;11.00;100.00;97411.44;7390903;19;20349;-54
2022/11/15 09:11:03;;;;;;;0.10;0.00;;;;;;;11.41;100.00;97406.72;7392125;19;20018;-54
2022/11/15 09:13:49;;;;;;;0.43;0.10;;;;;;;11.38;100.00;97407.81;7390921;19;20018;-54
2022/11/15 09:16:34;;;;;;;0.00;0.00;;;;;;;11.56;100.00;97392.22;7391187;19;20018;-54
2022/11/15 09:19:18;;;;;;;0.30;0.10;;;;;;;11.37;100.00;97395.16;7391265;19;20014;-54
2022/11/15 09:22:06;;;;;;;0.00;0.00;;;;;;;11.51;100.00;97398.66;7393099;19;20062;-54
2022/11/15 09:24:51;;;;;;;0.00;0.00;;;;;;;11.61;100.00;97380.19;7394304;19;20607;-55
2022/11/15 09:27:35;;;;;;;0.05;0.00;;;;;;;11.36;100.00;97376.22;7388718;19;20014;-55
2022/11/15 09:30:20;;;;;;;0.10;0.10;;;;;;;11.38;100.00;97382.00;7390357;19;20014;-55
2022/11/15 09:33:10;;;;;;;0.00;0.00;;;;;;;11.39;100.00;97369.56;7392895;19;20018;-55
2022/11/15 09:36:03;;;;;;;0.00;0.00;;;;;;;11.36;100.00;97376.97;7391530;19;20011;-54
2022/11/15 09:38:48;;;;;;;0.08;0.08;;;;;;;11.22;100.00;97374.72;7390497;19;20010;-54
2022/11/15 09:41:47;;;;;;;3.95;0.20;;;;;;;11.14;100.00;97371.13;7391063;19;20018;-54
2022/11/15 09:44:59;;;;;;;0.10;0.10;;;;;;;10.95;100.00;97371.28;7391149;19;20014;-54
2022/11/15 09:48:09;;;;;;;0.40;0.35;;;;;;;10.95;100.00;97364.97;7390822;19;20368;-54
2022/11/15 09:51:18;;;;;;;0.30;0.20;;;;;;;10.96;100.00;97355.31;7387929;19;20015;-54
2022/11/15 09:54:23;;;;;;;0.00;0.00;;;;;;;11.02;100.00;97351.09;7389380;19;20027;-54
2022/11/15 09:56:51;;;;;;;0.00;0.00;;;;;;;11.03;100.00;97358.19;7388044;19;20014;-55
2022/11/15 09:59:49;;;;;;;0.00;0.00;;;;;;;11.06;100.00;97359.16;7387292;19;20011;-55
2022/11/15 10:02:40;;;;;;;3.67;0.25;;;;;;;11.49;100.00;97348.28;7398484;19;20014;-54
2022/11/15 10:05:12;;;;;;;0.10;0.10;;;;;;;11.21;100.00;97348.94;7397594;19;20567;-54
2022/11/15 10:08:10;;;;;;;0.20;0.20;;;;;;;11.15;100.00;97347.56;7397158;19;20010;-54
2022/11/15 10:10:38;;;;;;;1.08;0.20;;;;;;;11.43;100.00;97347.69;7397018;19;20018;-54
2022/11/15 10:13:13;;;;;;;0.10;0.10;;;;;;;11.34;100.00;97339.78;7396303;19;20014;-54
2022/11/15 10:15:45;;;;;;;0.30;0.00;;;;;;;11.62;100.00;97342.66;7398736;19;20074;-54
2022/11/15 10:18:17;;;;;;;0.00;0.00;;;;;;;11.80;100.00;97325.00;7394482;19;20010;-53
2022/11/15 10:20:50;;;;;;;0.00;0.00;;;;;;;13.62;100.00;97316.19;7396621;19;20450;-54
2022/11/15 10:23:20;;;;;;;0.22;0.20;;;;;;;11.96;100.00;97309.88;7393278;19;20019;-53
2022/11/15 10:25:46;;;;;;;0.40;0.00;;;;;;;13.60;100.00;97315.25;7396069;19;20016;-54
2022/11/15 10:28:18;;;;;;;0.10;0.00;;;;;;;12.21;100.00;97296.28;7396894;19;20085;-54
2022/11/15 10:30:51;;;;;;;0.13;0.10;;;;;;;11.66;100.00;97308.84;7397419;19;20507;-54
2022/11/15 10:33:39;;;;;;;0.00;0.00;;;;;;;11.69;100.00;97305.03;7398895;19;20019;-54
2022/11/15 10:36:09;;;;;;;0.00;0.00;;;;;;;11.75;100.00;97300.81;7394927;19;20014;-54
2022/11/15 10:38:48;;;;;;;0.20;0.10;;;;;;;11.67;100.00;97304.81;7395006;19;20349;-54
2022/11/15 10:41:20;;;;;;;0.10;0.00;;;;;;;11.57;100.00;97296.16;7397236;19;20010;-54
2022/11/15 10:44:01;;;;;;;0.63;0.10;;;;;;;11.49;100.00;97300.16;7395393;19;20844;-55
2022/11/15 10:46:27;;;;;;;;;;;;;;;12.97;100.00;97291.81;7396831;19;20014;-54
2022/11/15 10:49:11;;;;;;;0.00;0.00;;;;;;;11.55;100.00;97293.16;7396242;19;19947;-54
2022/11/15 10:52:01;;;;;;;0.00;0.00;;;;;;;11.57;100.00;97298.19;7395675;19;20010;-54
2022/11/15 10:54:27;;;;;;;0.00;0.00;;;;;;;11.71;100.00;97292.03;7394518;19;20014;-54
2022/11/15 10:56:57;;;;;;;0.10;0.00;;;;;;;12.02;100.00;97274.22;7394511;19;20038;-53
2022/11/15 10:59:49;;;;;;;0.00;0.00;;;;;;;11.82;100.00;97263.88;7396163;19;20010;-54
2022/11/15 11:02:41;;;;;;;0.30;0.20;;;;;;;14.32;100.00;97234.47;7397256;19;20014;-54
2022/11/15 11:05:38;;;;;;;0.00;0.00;;;;;;;11.81;100.00;97247.66;7395198;19;20017;-55
2022/11/15 11:08:10;;;;;;;0.08;0.00;;;;;;;11.64;100.00;97256.44;7393162;19;20010;-54
2022/11/15 11:10:37;;;;;;;1.95;0.20;;;;;;;11.66;100.00;97248.28;7393266;19;20007;-54
2022/11/15 11:13:15;;;;;;;0.10;0.00;;;;;;;11.79;100.00;97245.44;7392707;19;20354;-54
2022/11/15 11:15:46;;;;;;;0.00;0.00;;;;;;;13.84;100.00;97235.66;7394423;19;20046;-54
2022/11/15 11:18:28;;;;;;;0.00;0.00;;;;;;;12.27;100.00;97226.38;7395204;19;20066;-54
2022/11/15 11:21:00;;;;;;;0.38;0.10;;;;;;;11.92;100.00;97225.81;7395980;19;20399;-54
2022/11/15 11:23:29;;;;;;;0.00;0.00;;;;;;;12.01;100.00;97233.69;7392413;19;20015;-54
2022/11/15 11:26:19;;;;;;;0.10;0.00;;;;;;;12.56;100.00;97231.34;7394137;19;20010;-54
2022/11/15 11:29:12;;;;;;;0.20;0.08;;;;;;;11.93;100.00;97227.28;7394277;19;20019;-55
2022/11/15 11:32:16;;;;;;;0.10;0.10;;;;;;;11.97;100.00;97222.13;7395945;19;20015;-55
2022/11/15 11:35:10;;;;;;;3.63;0.50;;;;;;;13.18;100.00;97208.63;7393940;19;20022;-54
2022/11/15 11:37:51;;;;;;;0.35;0.35;;;;;;;12.43;100.00;97202.81;7394811;19;20014;-54
2022/11/15 11:40:51;;;;;;;0.10;0.10;;;;;;;12.51;100.00;97207.13;7392088;19;20014;-54
2022/11/15 11:43:26;;;;;;;0.10;0.00;;;;;;;12.39;100.00;97205.22;7391961;19;20022;-54
2022/11/15 11:45:58;;;;;;;0.00;0.00;;;;;;;13.23;100.00;97182.53;7398649;19;20011;-55
2022/11/15 11:48:42;;;;;;;0.10;0.00;;;;;;;14.95;100.00;97165.81;7393144;19;20569;-55
2022/11/15 11:51:15;;;;;;;0.10;0.10;;;;;;;16.56;100.00;97147.63;7395317;19;20337;-55
2022/11/15 11:53:58;;;;;;;0.00;0.00;;;;;;;15.84;100.00;97145.28;7394240;19;20017;-55
2022/11/15 11:56:31;;;;;;;0.13;0.10;;;;;;;13.06;100.00;97159.97;7393826;19;20093;-55
2022/11/15 11:59:25;;;;;;;0.10;0.00;;;;;;;12.60;100.00;97183.53;7393758;19;20364;-55
2022/11/15 12:01:51;;;;;;;0.00;0.00;;;;;;;12.80;100.00;97174.25;7391712;19;20011;-55
2022/11/15 12:04:27;;;;;;;0.00;0.00;;;;;;;12.91;100.00;97185.06;7397262;19;20366;-55
2022/11/15 12:07:00;;;;;;;0.00;0.00;;;;;;;12.47;100.00;97173.25;7392770;19;20021;-55
2022/11/15 12:09:43;;;;;;;0.00;0.00;;;;;;;12.33;100.00;97160.72;7392599;19;20034;-55
2022/11/15 12:12:18;;;;;;;0.00;0.00;;;;;;;12.49;100.00;97167.13;7396068;19;20025;-55
2022/11/15 12:15:03;;;;;;;0.20;0.00;;;;;;;12.85;100.00;97162.16;7391863;19;20018;-56
2022/11/15 12:17:31;;;;;;;0.10;0.10;;;;;;;13.24;100.00;97149.75;7392046;19;20018;-55
2022/11/15 12:20:15;;;;;;;0.00;0.00;;;;;;;13.42;100.00;97143.03;7392018;19;20007;-55
2022/11/15 12:22:56;;;;;;;2.20;0.10;;;;;;;12.94;100.00;97142.06;7389286;19;20011;-55
2022/11/15 12:25:30;;;;;;;1.30;0.63;;;;;;;14.18;100.00;97129.59;7390819;19;20028;-55
2022/11/15 12:28:07;;;;;;;0.10;0.00;;;;;;;13.71;100.00;97115.59;7392055;19;20014;-55
2022/11/15 12:31:06;;;;;;;0.10;0.00;;;;;;;15.03;100.00;97127.25;7391908;19;20006;-55
2022/11/15 12:33:42;;;;;;;3.47;0.40;;;;;;;16.06;100.00;97121.81;7392916;19;20026;-55
2022/11/15 12:36:20;;;;;;;0.20;0.20;;;;;;;16.87;100.00;97117.03;7391515;19;20091;-55
2022/11/15 12:39:02;;;;;;;0.55;0.47;;;;;;;18.45;100.00;97139.56;7392115;19;20507;-55
2022/11/15 12:41:30;;;;;;;0.40;0.13;;;;;;;14.82;100.00;97146.47;7394288;19;20504;-55
2022/11/15 12:43:58;;;;;;;0.20;0.10;;;;;;;16.91;100.00;97140.59;7391811;19;20074;-53
2022/11/15 12:46:31;;;;;;;0.10;0.00;;;;;;;18.72;100.00;97131.69;7389080;19;20010;-53
2022/11/15 12:49:01;;;;;;;0.10;0.10;;;;;;;19.00;100.00;97132.94;7390774;19;20024;-53
2022/11/15 12:51:42;;;;;;;0.17;0.10;;;;;;;19.23;100.00;97133.13;7394421;19;20017;-53
2022/11/15 12:54:24;;;;;;;0.35;0.25;;;;;;;18.99;100.00;97136.34;7392141;19;20014;-52
2022/11/15 12:57:02;;;;;;;0.70;0.20;;;;;;;18.83;100.00;97150.03;7391188;19;20476;-53
2022/11/15 12:59:51;;;;;;;0.80;0.10;;;;;;;18.93;100.00;97145.13;7391813;19;20322;-53
2022/11/15 13:02:24;;;;;;;0.55;0.20;;;;;;;19.27;100.00;97139.06;7394912;19;20704;-53
2022/11/15 13:04:52;;;;;;;0.30;0.00;;;;;;;19.22;100.00;97137.28;7389503;19;20010;-53
2022/11/15 13:07:40;;;;;;;3.97;0.50;;;;;;;19.04;100.00;97138.84;7391025;19;20066;-50